Time;durP1;ratioP1;P1;durP2;ratioP2;P2;SDS_P1;SDS_P2;PMS_P1;PMS_P2;Temp;Humidity;BMP_temperature;BMP_pressure;BME280_temperature;BME280_humidity;BME280_pressure;Samples;Min_cycle;Max_cycle;Signal;HPM_P1;HPM_P2
2021/12/24 00:01:11;;;;;;;11.93;7.72;;;;;;;;;;5096099;28;20040;-52
2021/12/24 00:03:37;;;;;;;12.30;7.65;;;;;;;;;;5096398;28;20048;-54
2021/12/24 00:06:04;;;;;;;13.63;7.65;;;;;;;;;;5096233;28;20483;-54
2021/12/24 00:08:30;;;;;;;16.27;8.10;;;;;;;;;;5095525;28;20518;-54
2021/12/24 00:11:00;;;;;;;13.77;7.47;;;;;;;;;;5096394;28;20145;-55
2021/12/24 00:13:27;;;;;;;14.68;8.15;;;;;;;;;;5095882;28;20074;-54
2021/12/24 00:16:40;;;;;;;12.90;7.38;;;;;;;;;;5096164;28;20079;-54
2021/12/24 00:18:51;;;;;;;12.63;6.80;;;;;;;;;;5092882;28;20127;-53
2021/12/24 00:35:11;;;;;;;13.43;7.22;;;;;;;;;;5085180;28;20503;-54
2021/12/24 00:37:38;;;;;;;10.95;6.07;;;;;;;;;;5095239;28;20066;-54
2021/12/24 00:40:15;;;;;;;12.57;6.50;;;;;;;;;;5094553;28;20051;-55
2021/12/24 00:42:44;;;;;;;13.13;6.75;;;;;;;;;;5094747;28;20407;-53
2021/12/24 00:45:10;;;;;;;13.68;7.30;;;;;;;;;;5095911;28;20040;-54
2021/12/24 00:47:36;;;;;;;10.43;6.03;;;;;;;;;;5095465;28;20048;-54
2021/12/24 00:50:07;;;;;;;12.52;6.78;;;;;;;;;;5095261;28;20101;-54
2021/12/24 00:55:03;;;;;;;10.18;5.38;;;;;;;;;;5094788;28;20048;-55
2021/12/24 00:57:29;;;;;;;;;;;;;;;;;;5095130;28;20131;-55
2021/12/24 00:59:55;;;;;;;11.80;6.10;;;;;;;;;;5095335;28;19963;-55
2021/12/24 01:02:21;;;;;;;9.27;5.55;;;;;;;;;;5095233;28;20037;-54
2021/12/24 01:04:47;;;;;;;8.95;4.80;;;;;;;;;;5094972;28;20043;-55
2021/12/24 01:07:13;;;;;;;13.05;5.85;;;;;;;;;;5095366;28;20127;-55
2021/12/24 01:09:39;;;;;;;9.93;5.25;;;;;;;;;;5094684;28;20036;-55
2021/12/24 01:12:05;;;;;;;9.77;5.20;;;;;;;;;;5094939;28;20047;-54
2021/12/24 01:14:31;;;;;;;8.52;4.75;;;;;;;;;;5093674;28;20548;-56
2021/12/24 01:17:29;;;;;;;13.40;5.97;;;;;;;;;;5095105;28;20392;-55
2021/12/24 01:19:49;;;;;;;10.73;5.37;;;;;;;;;;5094208;28;20410;-55
2021/12/24 01:23:03;;;;;;;10.48;5.70;;;;;;;;;;5094842;28;20060;-54
2021/12/24 01:25:39;;;;;;;9.43;5.57;;;;;;;;;;5094224;28;20514;-55
2021/12/24 01:39:15;;;;;;;9.80;5.30;;;;;;;;;;5094183;28;20044;-54
2021/12/24 01:44:27;;;;;;;7.65;3.90;;;;;;;;;;5094145;28;20048;-55
2021/12/24 01:46:59;;;;;;;8.88;4.13;;;;;;;;;;5094108;28;20044;-54
2021/12/24 01:49:26;;;;;;;8.45;4.57;;;;;;;;;;5094083;28;20059;-54
2021/12/24 01:51:52;;;;;;;8.02;4.10;;;;;;;;;;5094373;28;20054;-54
2021/12/24 01:54:18;;;;;;;8.88;4.90;;;;;;;;;;5093955;28;20402;-54
2021/12/24 01:56:44;;;;;;;8.18;4.15;;;;;;;;;;5094208;28;20044;-53
2021/12/24 01:59:10;;;;;;;7.90;4.20;;;;;;;;;;5092696;28;20044;-54
2021/12/24 02:01:36;;;;;;;8.25;3.95;;;;;;;;;;5093324;28;20086;-54
2021/12/24 02:04:02;;;;;;;9.10;4.13;;;;;;;;;;5094056;28;20119;-54
2021/12/24 02:06:28;;;;;;;7.55;3.60;;;;;;;;;;5091786;28;20062;-54
2021/12/24 02:08:54;;;;;;;6.80;3.75;;;;;;;;;;5093768;28;20502;-54
2021/12/24 02:11:21;;;;;;;7.20;3.67;;;;;;;;;;5094194;28;20129;-54
2021/12/24 02:13:47;;;;;;;7.90;4.45;;;;;;;;;;5092327;28;20470;-54
2021/12/24 02:29:23;;;;;;;7.10;3.58;;;;;;;;;;5093168;28;20048;-55
2021/12/24 02:31:49;;;;;;;8.25;3.88;;;;;;;;;;5093757;28;20036;-55
2021/12/24 02:34:15;;;;;;;7.25;3.60;;;;;;;;;;5092190;28;20479;-55
2021/12/24 02:36:41;;;;;;;7.20;3.70;;;;;;;;;;5092870;28;20051;-55
2021/12/24 02:39:07;;;;;;;7.65;3.20;;;;;;;;;;5093577;28;20456;-55
2021/12/24 02:41:33;;;;;;;7.47;3.53;;;;;;;;;;5093127;28;20135;-55
2021/12/24 02:43:59;;;;;;;6.13;3.25;;;;;;;;;;5093078;28;20074;-55
2021/12/24 02:46:32;;;;;;;7.28;3.72;;;;;;;;;;5093324;28;20051;-55
2021/12/24 02:49:10;;;;;;;6.97;3.13;;;;;;;;;;5093186;28;20044;-54
2021/12/24 02:54:21;;;;;;;7.95;3.08;;;;;;;;;;5093526;28;20040;-55
2021/12/24 02:56:52;;;;;;;5.72;2.83;;;;;;;;;;5092915;28;20044;-55
2021/12/24 02:59:19;;;;;;;7.60;3.38;;;;;;;;;;5093317;28;20079;-55
2021/12/24 03:01:46;;;;;;;5.68;2.63;;;;;;;;;;5092737;28;20044;-54
2021/12/24 03:04:12;;;;;;;6.45;3.22;;;;;;;;;;5092387;28;20036;-54
2021/12/24 03:06:42;;;;;;;7.60;3.28;;;;;;;;;;5092742;28;20047;-55
2021/12/24 03:09:09;;;;;;;;;;;;;;;;;;5093421;28;20043;-55
2021/12/24 03:11:35;;;;;;;5.65;2.88;;;;;;;;;;5092452;28;19920;-54
2021/12/24 03:14:02;;;;;;;4.88;2.35;;;;;;;;;;5093116;28;20442;-54
2021/12/24 03:16:28;;;;;;;5.63;2.70;;;;;;;;;;5092239;28;20089;-55
2021/12/24 03:18:54;;;;;;;6.13;2.90;;;;;;;;;;5092344;28;20039;-54
2021/12/24 03:21:26;;;;;;;5.07;2.42;;;;;;;;;;5092723;28;20110;-54
2021/12/24 03:26:28;;;;;;;4.68;2.35;;;;;;;;;;5092345;28;20051;-54
2021/12/24 03:28:54;;;;;;;5.28;2.47;;;;;;;;;;5092805;28;20043;-55
2021/12/24 03:31:20;;;;;;;5.20;2.20;;;;;;;;;;5092297;28;20036;-54
2021/12/24 03:33:46;;;;;;;5.57;2.70;;;;;;;;;;5092636;28;20052;-55
2021/12/24 03:36:13;;;;;;;5.30;2.58;;;;;;;;;;5092626;28;20051;-55
2021/12/24 03:38:39;;;;;;;5.50;2.30;;;;;;;;;;5092247;28;20048;-54
2021/12/24 03:41:05;;;;;;;5.05;2.30;;;;;;;;;;5092981;28;20044;-54
2021/12/24 03:43:32;;;;;;;5.28;2.25;;;;;;;;;;5092211;28;20170;-54
2021/12/24 03:46:08;;;;;;;4.78;2.25;;;;;;;;;;5092099;28;20117;-54
2021/12/24 03:49:21;;;;;;;4.05;2.10;;;;;;;;;;5092383;28;20093;-54
2021/12/24 03:51:51;;;;;;;5.32;2.42;;;;;;;;;;5086428;28;20048;-54
2021/12/24 03:57:02;;;;;;;3.47;1.80;;;;;;;;;;5092622;28;20044;-55
2021/12/24 03:59:28;;;;;;;4.43;2.08;;;;;;;;;;5091758;28;20055;-54
2021/12/24 04:01:54;;;;;;;4.72;1.98;;;;;;;;;;5092442;28;20047;-54
2021/12/24 04:04:20;;;;;;;5.18;2.15;;;;;;;;;;5092379;28;20422;-54
2021/12/24 04:06:49;;;;;;;3.90;1.80;;;;;;;;;;5091799;28;20517;-55
2021/12/24 04:09:19;;;;;;;3.35;1.55;;;;;;;;;;5092483;28;20483;-54
2021/12/24 04:11:45;;;;;;;5.20;2.08;;;;;;;;;;5092184;28;20052;-55
2021/12/24 04:14:11;;;;;;;3.75;1.90;;;;;;;;;;5091996;28;20479;-54
2021/12/24 04:16:37;;;;;;;4.22;1.85;;;;;;;;;;5092188;28;20048;-54
2021/12/24 04:19:37;;;;;;;4.15;1.85;;;;;;;;;;5092286;28;20048;-54
2021/12/24 04:24:56;;;;;;;4.40;1.92;;;;;;;;;;5092453;28;20048;-55
2021/12/24 04:27:27;;;;;;;4.43;1.50;;;;;;;;;;5092209;28;20050;-55
2021/12/24 04:29:59;;;;;;;3.80;1.77;;;;;;;;;;5095449;28;20040;-54
2021/12/24 04:32:35;;;;;;;3.70;1.48;;;;;;;;;;5095778;28;20046;-55
2021/12/24 04:35:16;;;;;;;3.38;1.58;;;;;;;;;;5095535;28;20470;-55
2021/12/24 04:51:21;;;;;;;4.57;1.90;;;;;;;;;;5095918;28;20086;-54
2021/12/24 05:04:55;;;;;;;4.07;1.83;;;;;;;;;;5094615;28;20407;-53
2021/12/24 05:10:02;;;;;;;4.30;2.00;;;;;;;;;;5094828;28;20093;-55
2021/12/24 05:12:31;;;;;;;3.05;1.50;;;;;;;;;;5094968;28;20048;-55
2021/12/24 05:15:00;;;;;;;3.33;1.60;;;;;;;;;;5094824;28;20048;-53
2021/12/24 05:17:48;;;;;;;4.28;1.80;;;;;;;;;;5094215;28;20051;-54
2021/12/24 05:22:59;;;;;;;3.63;1.60;;;;;;;;;;5095025;28;20052;-54
2021/12/24 05:25:25;;;;;;;4.63;1.80;;;;;;;;;;5094171;28;20075;-55
2021/12/24 05:27:52;;;;;;;3.83;1.92;;;;;;;;;;5094978;28;20047;-54
2021/12/24 05:30:18;;;;;;;5.03;2.22;;;;;;;;;;5093389;28;20056;-54
2021/12/24 05:34:47;;;;;;;5.80;2.05;;;;;;;;;;5110936;27;20833;-55
2021/12/24 05:37:13;;;;;;;58.08;38.67;;;;;;;;;;5090101;28;20122;-55
2021/12/24 14:25:10;;;;;;;32.50;19.02;;;;;;;;;;5081356;27;20836;-52
2021/12/24 14:27:37;;;;;;;30.13;17.17;;;;;;;;;;5080255;28;20059;-52
2021/12/24 14:30:06;;;;;;;30.95;17.45;;;;;;;;;;5080916;28;20048;-51
2021/12/24 14:32:36;;;;;;;27.55;16.33;;;;;;;;;;5080400;28;20055;-51
2021/12/24 14:35:19;;;;;;;25.60;13.30;;;;;;;;;;5080754;28;20468;-51
2021/12/24 14:37:53;;;;;;;26.80;13.75;;;;;;;;;;5080593;28;20127;-51
2021/12/24 14:40:19;;;;;;;23.02;13.38;;;;;;;;;;5079979;28;20553;-51
2021/12/24 14:42:47;;;;;;;25.05;14.68;;;;;;;;;;5080420;28;20090;-51
2021/12/24 14:45:13;;;;;;;22.80;12.40;;;;;;;;;;5080765;28;20148;-51
2021/12/24 14:47:39;;;;;;;24.73;13.63;;;;;;;;;;5079622;28;20048;-52
2021/12/24 14:50:07;;;;;;;25.88;14.35;;;;;;;;;;5080484;28;20055;-51
2021/12/24 14:52:33;;;;;;;21.42;12.20;;;;;;;;;;5080355;28;20048;-51
2021/12/24 14:55:09;;;;;;;22.27;12.02;;;;;;;;;;5080185;28;20945;-52
2021/12/24 14:57:45;;;;;;;19.90;11.77;;;;;;;;;;5079989;28;20499;-52
2021/12/24 15:00:12;;;;;;;21.67;12.60;;;;;;;;;;5080385;28;20032;-51
2021/12/24 15:02:41;;;;;;;21.67;11.80;;;;;;;;;;5078966;28;20048;-52
2021/12/24 15:05:07;;;;;;;17.80;10.90;;;;;;;;;;5079713;28;20177;-51
2021/12/24 15:07:33;;;;;;;18.77;11.05;;;;;;;;;;5079425;28;20076;-51
2021/12/24 15:10:12;;;;;;;21.08;11.80;;;;;;;;;;5062260;28;20109;-52
2021/12/24 15:12:42;;;;;;;20.20;11.90;;;;;;;;;;5079724;28;20479;-52
2021/12/24 15:15:08;;;;;;;18.80;10.23;;;;;;;;;;5079934;28;20072;-52
2021/12/24 15:17:38;;;;;;;21.05;11.55;;;;;;;;;;5079447;28;20089;-51
2021/12/24 15:20:04;;;;;;;15.30;9.70;;;;;;;;;;5079637;28;20499;-52
2021/12/24 15:22:30;;;;;;;22.17;12.57;;;;;;;;;;5079245;28;20061;-51
2021/12/24 15:24:57;;;;;;;14.50;7.18;;;;;;;;;;5079088;28;20064;-54
2021/12/24 15:27:31;;;;;;;14.25;8.07;;;;;;;;;;5079133;28;20491;-53
2021/12/24 15:29:57;;;;;;;16.60;7.75;;;;;;;;;;5079255;28;20624;-53
2021/12/24 15:32:23;;;;;;;14.93;8.30;;;;;;;;;;5079142;28;20381;-53
2021/12/24 15:34:49;;;;;;;14.70;7.43;;;;;;;;;;5075438;28;20049;-51
2021/12/24 15:37:15;;;;;;;15.65;7.72;;;;;;;;;;5067697;28;20036;-53
2021/12/24 15:39:41;;;;;;;14.95;6.85;;;;;;;;;;5074402;28;20040;-55
2021/12/24 15:42:07;;;;;;;12.80;6.85;;;;;;;;;;5075603;28;20507;-54
2021/12/24 15:44:34;;;;;;;12.80;6.90;;;;;;;;;;5074436;28;20055;-54
2021/12/24 15:47:00;;;;;;;13.90;6.00;;;;;;;;;;5075425;28;20044;-55
2021/12/24 15:49:26;;;;;;;12.63;5.45;;;;;;;;;;5075121;28;20399;-56
2021/12/24 15:51:53;;;;;;;11.68;5.82;;;;;;;;;;5074913;28;20041;-55
2021/12/24 15:54:19;;;;;;;12.52;5.90;;;;;;;;;;5075125;28;20047;-54
2021/12/24 15:56:45;;;;;;;13.25;6.57;;;;;;;;;;5074380;28;20041;-54
2021/12/24 15:59:11;;;;;;;12.43;6.63;;;;;;;;;;5074015;28;20098;-55
2021/12/24 16:01:37;;;;;;;15.50;6.38;;;;;;;;;;5074678;28;20040;-55
2021/12/24 16:04:03;;;;;;;12.45;5.88;;;;;;;;;;5074546;28;20051;-55
2021/12/24 16:06:29;;;;;;;13.15;6.25;;;;;;;;;;5074830;28;20503;-59
2021/12/24 16:08:55;;;;;;;10.52;4.15;;;;;;;;;;5074469;28;20078;-54
2021/12/24 16:11:21;;;;;;;20.20;12.45;;;;;;;;;;5073981;28;20169;-55
2021/12/24 16:13:47;;;;;;;23.05;12.20;;;;;;;;;;5074279;28;20530;-54
2021/12/24 16:16:15;;;;;;;37.17;23.55;;;;;;;;;;5074941;28;20040;-58
